Portada
METAR-TAF:

METAR-TAF

Aeropuertos :

Aeropuerto de Sevilla

Sevilla, España

latitud: 37-25N, longitud: 005-54W, altitud: 34 m

Observación

El informe se hizo hace 38 minutos, a las 03:00 UTC
Viento 4 kt del noreste
Temperatura 17°C
Humedad 94%
Presión 1011 hPa
Visibilidad 10 km o más
Cielo nuboso a una altura de 600 ft

METAR: LEZL 160300Z 05004KT 9999 BKN006 17/16 Q1011 NOSIG

Hora: 05:38 (03:38 UTC)

Pronóstico

El informe se hizo hace 1 hora y 38 minutos, a las 02:00 UTC
Pronóstico válido del 16 a las 03 UTC al 17 a las 03 UTC
Viento 3 kt con dirección variable
Visibilidad 10 km o más
Nubes dispersas a una altura de 2000 ft
Probabilidad 30% :
Temporalmente
del 16 a las 03 UTC al 16 a las 08 UTC
Visibilidad: 3000 m
Cielo nuboso a una altura de 700 ft
neblina

TAF: LEZL 160200Z 1603/1703 VRB03KT 9999 SCT020 TX24/1614Z TN13/1606Z PROB30 TEMPO 1603/1608 3000 BR BKN007

Observaciones y pronósticos meteorológicos de más de 4000 aeropuertos (mensajes METAR y TAF).

Los puntos amarillos y rojos representan las estaciones disponibles.

Ponga el ratón en el punto deseado para ver el nombre de la estación.

Haga clic para ver las observaciones y los pronósticos meteorológicos.

Para cambiar el mapa : haga clic en los botones verdes con una cruz de color negro para hacer un zoom, en el botón verde con un guión para alejar o en las flechas verdes para mapas adyacentes.


METAR-TAF: